Time;durP1;ratioP1;P1;durP2;ratioP2;P2;SDS_P1;SDS_P2;PMS_P1;PMS_P2;Temp;Humidity;BMP_temperature;BMP_pressure;BME280_temperature;BME280_humidity;BME280_pressure;Samples;Min_cycle;Max_cycle;Signal;HPM_P1;HPM_P2
2023/01/26 00:02:03;;;;;;;76.43;21.50;;;0.60;99.90;;;;;;5094691;27;20988;-79
2023/01/26 00:04:28;;;;;;;74.97;21.90;;;0.60;99.90;;;;;;5112704;27;20406;-79
2023/01/26 00:06:54;;;;;;;78.93;22.25;;;0.60;99.90;;;;;;5091531;28;20406;-79
2023/01/26 00:09:19;;;;;;;69.97;20.07;;;0.60;99.90;;;;;;5091679;28;20431;-78
2023/01/26 00:11:45;;;;;;;65.07;19.97;;;0.60;99.90;;;;;;5111553;27;20904;-78
2023/01/26 00:14:11;;;;;;;65.97;20.70;;;0.60;99.90;;;;;;5111951;27;20395;-78
2023/01/26 00:16:37;;;;;;;73.57;21.10;;;0.60;99.90;;;;;;5111880;27;20746;-78
2023/01/26 00:19:03;;;;;;;67.78;19.92;;;0.60;99.90;;;;;;5091744;27;20483;-78
2023/01/26 00:21:29;;;;;;;67.75;20.95;;;0.60;99.90;;;;;;5098643;27;20430;-78
2023/01/26 00:23:55;;;;;;;71.95;20.30;;;0.60;99.90;;;;;;5111066;27;20387;-78
2023/01/26 00:26:23;;;;;;;61.42;18.63;;;0.60;99.90;;;;;;5112411;27;20822;-78
2023/01/26 00:28:50;;;;;;;65.90;19.67;;;0.60;99.90;;;;;;5111727;27;20407;-78
2023/01/26 00:31:18;;;;;;;63.13;18.80;;;0.60;99.90;;;;;;5112112;27;20498;-78
2023/01/26 00:33:44;;;;;;;61.05;18.10;;;0.60;99.90;;;;;;5112276;27;20443;-78
2023/01/26 00:36:11;;;;;;;66.07;18.75;;;0.70;99.90;;;;;;5094505;27;20483;-78
2023/01/26 00:38:38;;;;;;;59.40;18.23;;;0.60;99.90;;;;;;5111726;27;20744;-78
2023/01/26 00:41:04;;;;;;;68.28;18.77;;;0.70;99.90;;;;;;5111361;27;20475;-78
2023/01/26 00:43:30;;;;;;;61.28;18.10;;;0.70;99.90;;;;;;5111878;27;20403;-78
2023/01/26 00:45:55;;;;;;;55.47;15.95;;;0.60;99.90;;;;;;5111171;27;20459;-78
2023/01/26 00:48:21;;;;;;;65.27;18.30;;;0.60;99.90;;;;;;5111837;27;20884;-78
2023/01/26 00:50:49;;;;;;;63.15;17.05;;;0.70;99.90;;;;;;5111990;27;20428;-78
2023/01/26 00:53:16;;;;;;;64.75;18.23;;;0.70;99.90;;;;;;5110822;27;20395;-78
2023/01/26 00:55:41;;;;;;;63.58;18.17;;;0.70;99.90;;;;;;5106273;27;20592;-77
2023/01/26 00:58:08;;;;;;;63.38;17.00;;;0.60;99.90;;;;;;5091164;27;20485;-77
2023/01/26 01:00:36;;;;;;;71.60;18.75;;;0.70;99.90;;;;;;5121580;27;20423;-78
2023/01/26 01:03:02;;;;;;;58.67;16.53;;;0.70;99.90;;;;;;5105062;27;20787;-78
2023/01/26 01:05:30;;;;;;;61.55;17.17;;;0.70;99.90;;;;;;5099040;27;20397;-77
2023/01/26 01:07:56;;;;;;;55.83;16.60;;;0.70;99.90;;;;;;5110280;27;20440;-77
2023/01/26 01:10:22;;;;;;;57.58;16.85;;;0.70;99.90;;;;;;5126735;27;20397;-77
2023/01/26 01:12:48;;;;;;;67.10;16.30;;;0.70;99.90;;;;;;5109552;27;20443;-77
2023/01/26 01:15:14;;;;;;;58.42;16.30;;;0.70;99.90;;;;;;5125865;27;20409;-78
2023/01/26 01:17:40;;;;;;;65.60;16.70;;;0.70;99.90;;;;;;5116047;27;20459;-77
2023/01/26 01:20:07;;;;;;;68.40;16.83;;;0.70;99.90;;;;;;5125457;27;20404;-78
2023/01/26 01:22:34;;;;;;;60.03;16.70;;;0.70;99.90;;;;;;5108213;27;20392;-77
2023/01/26 01:25:00;;;;;;;55.30;15.83;;;0.70;99.90;;;;;;5115490;27;20472;-78
2023/01/26 01:27:26;;;;;;;55.03;15.83;;;0.70;99.90;;;;;;5125051;27;20492;-77
2023/01/26 01:29:51;;;;;;;50.87;15.33;;;0.70;99.90;;;;;;5101836;27;20410;-78
2023/01/26 01:32:18;;;;;;;54.90;15.93;;;0.70;99.90;;;;;;5103017;27;20449;-77
2023/01/26 01:34:46;;;;;;;56.03;15.18;;;0.70;99.90;;;;;;5106610;27;20392;-77
2023/01/26 01:37:12;;;;;;;55.17;15.70;;;0.70;99.90;;;;;;5113698;27;20414;-78
2023/01/26 01:39:38;;;;;;;48.60;14.93;;;0.70;99.90;;;;;;5105588;27;20408;-78
2023/01/26 01:42:04;;;;;;;48.75;15.57;;;0.70;99.90;;;;;;5114595;27;20521;-78
2023/01/26 01:44:29;;;;;;;54.13;15.65;;;0.70;99.90;;;;;;5101374;27;20494;-78
2023/01/26 01:47:00;;;;;;;57.57;16.27;;;0.70;99.90;;;;;;5110166;28;20974;-78
2023/01/26 01:49:33;;;;;;;52.83;15.70;;;0.70;99.90;;;;;;5121649;27;20413;-78
2023/01/26 01:52:01;;;;;;;66.57;16.57;;;0.70;99.90;;;;;;5102470;28;20469;-78
2023/01/26 01:55:06;;;;;;;61.30;16.00;;;0.80;99.90;;;;;;5110315;28;20469;-78
2023/01/26 01:57:52;;;;;;;53.80;15.45;;;0.70;99.90;;;;;;5093235;28;20914;-78
2023/01/26 02:00:20;;;;;;;51.33;14.88;;;0.80;99.90;;;;;;5106250;28;20409;-78
2023/01/26 02:03:10;;;;;;;66.72;16.00;;;0.80;99.90;;;;;;5106404;28;20418;-78
2023/01/26 02:05:52;;;;;;;69.15;16.63;;;0.80;99.90;;;;;;5083246;28;20485;-78
2023/01/26 02:08:20;;;;;;;65.82;17.05;;;0.80;99.90;;;;;;5122167;27;20409;-78
2023/01/26 02:10:49;;;;;;;62.87;16.87;;;0.80;99.90;;;;;;5116977;28;20395;-77
2023/01/26 02:13:17;;;;;;;58.93;16.97;;;0.80;99.90;;;;;;5109420;28;20407;-78
2023/01/26 02:15:43;;;;;;;58.70;16.10;;;0.80;99.90;;;;;;5109751;27;20402;-78
2023/01/26 02:18:10;;;;;;;65.28;17.40;;;0.80;99.90;;;;;;5120960;27;20402;-78
2023/01/26 02:20:55;;;;;;;59.23;16.47;;;0.80;99.90;;;;;;5106460;27;20432;-78
2023/01/26 02:23:49;;;;;;;62.53;17.75;;;0.90;99.90;;;;;;5111296;27;20488;-77
2023/01/26 02:26:19;;;;;;;60.97;17.27;;;0.90;99.90;;;;;;5118004;27;20407;-77
2023/01/26 02:28:45;;;;;;;63.38;17.42;;;0.80;99.90;;;;;;5132016;27;20409;-77
2023/01/26 02:31:11;;;;;;;76.95;19.00;;;0.90;99.90;;;;;;5127931;27;20402;-77
2023/01/26 02:33:38;;;;;;;69.72;18.75;;;0.90;99.90;;;;;;5131090;27;20396;-77
2023/01/26 02:36:04;;;;;;;61.88;17.67;;;0.90;99.90;;;;;;5119748;27;20394;-80
2023/01/26 02:38:39;;;;;;;62.97;17.50;;;0.90;99.90;;;;;;5116132;27;21116;-79
2023/01/26 02:41:11;;;;;;;78.03;18.75;;;0.90;99.90;;;;;;5100643;28;20485;-79
2023/01/26 02:43:37;;;;;;;67.65;17.85;;;0.90;99.90;;;;;;5109843;27;20414;-80
2023/01/26 02:46:03;;;;;;;59.00;17.65;;;0.90;99.90;;;;;;5129245;27;20406;-79
2023/01/26 02:51:15;;;;;;;80.70;18.98;;;0.90;99.90;;;;;;5114246;27;20419;-79
2023/01/26 02:53:40;;;;;;;61.30;17.75;;;0.90;99.90;;;;;;5118008;27;20398;-79
2023/01/26 02:56:06;;;;;;;61.15;17.73;;;1.00;99.90;;;;;;5125142;27;20406;-79
2023/01/26 02:58:32;;;;;;;70.20;18.80;;;1.00;99.90;;;;;;5098610;27;20463;-79
2023/01/26 03:00:57;;;;;;;69.10;17.57;;;1.00;99.90;;;;;;5113984;27;20423;-79
2023/01/26 03:03:40;;;;;;;69.43;18.20;;;1.00;99.90;;;;;;5110082;27;20741;-80
2023/01/26 03:06:09;;;;;;;80.93;19.38;;;1.00;99.90;;;;;;5122190;27;20416;-80
2023/01/26 03:08:35;;;;;;;67.57;18.40;;;1.00;99.90;;;;;;5118579;27;20476;-79
2023/01/26 03:11:01;;;;;;;61.08;17.20;;;1.00;99.90;;;;;;5112621;27;20415;-79
2023/01/26 03:13:27;;;;;;;66.00;18.02;;;1.00;99.90;;;;;;5110385;27;20402;-79
2023/01/26 03:15:53;;;;;;;85.00;18.80;;;1.00;99.90;;;;;;5111550;27;20503;-79
2023/01/26 03:29:29;;;;;;;98.07;19.27;;;1.10;99.90;;;;;;5116096;27;20446;-79
2023/01/26 03:31:55;;;;;;;75.88;18.38;;;1.10;99.90;;;;;;5124433;27;20999;-79
2023/01/26 03:34:21;;;;;;;91.40;19.13;;;1.10;99.90;;;;;;5127300;27;20576;-79
2023/01/26 03:36:48;;;;;;;78.47;19.17;;;1.10;99.90;;;;;;5113270;27;20404;-79
2023/01/26 03:41:06;;;;;;;95.70;19.42;;;1.10;99.90;;;;;;5124738;27;20443;-80
2023/01/26 03:58:32;;;;;;;84.78;18.58;;;1.10;99.90;;;;;;5119067;27;20824;-79
2023/01/26 04:00:58;;;;;;;70.30;17.58;;;1.10;99.90;;;;;;5095293;27;20860;-79
2023/01/26 04:08:52;;;;;;;76.70;18.77;;;1.20;99.90;;;;;;5106571;27;20410;-79
2023/01/26 04:11:17;;;;;;;78.72;18.23;;;1.10;99.90;;;;;;5113948;27;20410;-79
2023/01/26 04:21:57;;;;;;;88.05;17.92;;;1.20;99.90;;;;;;5112982;27;20436;-79
2023/01/26 04:24:23;;;;;;;79.47;18.10;;;1.20;99.90;;;;;;5113514;27;20756;-79
2023/01/26 04:26:49;;;;;;;73.27;17.67;;;1.20;99.90;;;;;;5123799;27;20397;-79
2023/01/26 04:29:15;;;;;;;68.72;16.10;;;1.20;99.90;;;;;;5111688;27;20403;-80
2023/01/26 04:31:41;;;;;;;70.87;16.53;;;1.20;99.90;;;;;;5109956;27;20441;-79
2023/01/26 04:34:12;;;;;;;72.27;17.00;;;1.20;99.90;;;;;;5093097;27;20402;-79
2023/01/26 04:36:38;;;;;;;81.80;17.08;;;1.20;99.90;;;;;;5110817;27;20429;-79
2023/01/26 04:39:04;;;;;;;78.55;17.20;;;1.20;99.90;;;;;;5116430;27;20401;-79
2023/01/26 04:41:31;;;;;;;77.23;16.90;;;1.20;99.90;;;;;;5106642;27;20432;-78
2023/01/26 04:43:57;;;;;;;89.57;18.60;;;1.30;99.90;;;;;;5121553;27;20403;-79
2023/01/26 04:46:22;;;;;;;79.85;17.73;;;1.20;99.90;;;;;;5111766;27;20406;-79
2023/01/26 04:48:48;;;;;;;104.83;19.60;;;1.30;99.90;;;;;;5127810;27;21088;-79
2023/01/26 04:51:16;;;;;;;83.28;17.90;;;1.30;99.90;;;;;;5124996;27;20978;-79
2023/01/26 04:53:42;;;;;;;74.13;18.05;;;1.30;99.90;;;;;;5120917;27;20406;-79
2023/01/26 04:56:24;;;;;;;88.72;18.30;;;1.30;99.90;;;;;;5111398;27;20429;-79
2023/01/26 04:58:51;;;;;;;101.97;19.85;;;1.30;99.90;;;;;;5103200;27;20411;-79
2023/01/26 05:01:16;;;;;;;88.82;19.23;;;1.30;99.90;;;;;;5119970;27;20431;-79
2023/01/26 05:03:42;;;;;;;85.75;19.10;;;1.30;99.90;;;;;;5111120;27;20820;-79
2023/01/26 05:06:08;;;;;;;92.73;19.13;;;1.30;99.90;;;;;;5112908;27;20402;-79
2023/01/26 05:08:35;;;;;;;85.30;18.70;;;1.30;99.90;;;;;;5137661;27;20503;-80
2023/01/26 05:11:00;;;;;;;80.25;18.60;;;1.40;99.90;;;;;;5093293;27;20403;-79
2023/01/26 05:13:26;;;;;;;85.57;18.85;;;1.40;99.90;;;;;;5101982;28;20473;-79
2023/01/26 05:15:52;;;;;;;100.10;20.00;;;1.40;99.90;;;;;;5117817;27;20912;-79
2023/01/26 05:18:17;;;;;;;103.90;19.60;;;1.40;99.90;;;;;;5127924;27;20399;-79
2023/01/26 05:20:43;;;;;;;98.93;20.48;;;1.40;99.90;;;;;;5121301;27;20422;-79
2023/01/26 05:23:08;;;;;;;98.87;20.37;;;1.40;99.90;;;;;;5138316;27;20425;-79
2023/01/26 05:25:34;;;;;;;98.13;20.27;;;1.40;99.90;;;;;;5130129;27;20478;-79
2023/01/26 05:28:00;;;;;;;91.15;19.63;;;1.50;99.90;;;;;;5127948;27;20541;-79
2023/01/26 05:30:25;;;;;;;95.30;20.63;;;1.50;99.90;;;;;;5113684;27;20507;-79
2023/01/26 05:32:51;;;;;;;93.53;20.25;;;1.50;99.90;;;;;;5127852;27;20401;-79
2023/01/26 05:35:17;;;;;;;106.18;20.65;;;1.50;99.90;;;;;;5124585;27;20859;-80
2023/01/26 05:37:44;;;;;;;108.22;21.27;;;1.50;99.90;;;;;;5128091;27;20393;-79
2023/01/26 05:40:11;;;;;;;107.40;20.90;;;1.50;99.90;;;;;;5116257;27;20409;-79
2023/01/26 05:42:37;;;;;;;98.63;20.38;;;1.50;99.90;;;;;;5070401;28;20764;-79
2023/01/26 05:45:03;;;;;;;102.40;20.83;;;1.50;99.90;;;;;;5081680;28;20433;-79
2023/01/26 05:47:29;;;;;;;100.90;20.60;;;1.50;99.90;;;;;;5083020;28;20426;-79
2023/01/26 05:49:55;;;;;;;112.90;20.87;;;1.50;99.90;;;;;;5070133;28;20538;-79
2023/01/26 05:52:21;;;;;;;130.98;22.33;;;1.50;99.90;;;;;;5103075;28;20408;-79
2023/01/26 05:54:47;;;;;;;100.00;20.13;;;1.50;99.90;;;;;;5099320;28;20414;-79
2023/01/26 05:57:15;;;;;;;123.03;22.37;;;1.50;99.90;;;;;;5103615;28;20415;-79
2023/01/26 05:59:41;;;;;;;106.72;20.80;;;1.60;99.90;;;;;;5098870;28;20414;-79
2023/01/26 06:02:08;;;;;;;103.78;20.75;;;1.60;99.90;;;;;;5095478;28;20426;-79
2023/01/26 06:04:33;;;;;;;99.45;20.90;;;1.60;99.90;;;;;;5096719;28;20406;-79
2023/01/26 06:06:59;;;;;;;113.00;21.17;;;1.60;99.90;;;;;;5095401;28;20409;-80
2023/01/26 06:09:25;;;;;;;104.35;19.90;;;1.60;99.90;;;;;;5086632;28;20412;-79
2023/01/26 06:11:51;;;;;;;88.67;19.60;;;1.60;99.90;;;;;;5090792;28;20483;-79
2023/01/26 06:14:16;;;;;;;85.93;20.50;;;1.60;99.90;;;;;;5111130;28;20398;-79
2023/01/26 06:16:42;;;;;;;91.72;19.80;;;1.60;99.90;;;;;;5094858;28;20416;-80
2023/01/26 06:19:09;;;;;;;88.60;18.77;;;1.60;99.90;;;;;;5088061;28;20413;-79
2023/01/26 06:21:35;;;;;;;77.43;17.88;;;1.60;99.90;;;;;;5086213;28;20907;-79
2023/01/26 06:24:01;;;;;;;65.13;15.90;;;1.60;99.90;;;;;;5074901;28;20498;-79
2023/01/26 06:26:26;;;;;;;61.17;15.60;;;1.70;99.90;;;;;;5091313;28;20776;-79
2023/01/26 06:28:52;;;;;;;56.03;12.50;;;1.70;99.90;;;;;;5089209;28;20421;-80
2023/01/26 06:31:19;;;;;;;46.13;10.20;;;1.90;99.90;;;;;;5090087;28;20410;-80
2023/01/26 06:33:45;;;;;;;50.20;8.27;;;2.00;99.90;;;;;;5086326;28;20418;-79
2023/01/26 06:36:13;;;;;;;54.67;7.65;;;2.30;99.90;;;;;;5089771;28;20493;-79
2023/01/26 06:38:48;;;;;;;43.42;5.72;;;2.50;99.90;;;;;;5089783;28;20401;-80
2023/01/26 06:41:14;;;;;;;43.30;6.03;;;2.90;99.90;;;;;;5101454;28;20502;-79
2023/01/26 06:43:47;;;;;;;34.63;6.03;;;3.20;99.90;;;;;;5103493;28;20478;-79
2023/01/26 06:46:14;;;;;;;42.83;5.68;;;3.50;99.90;;;;;;5102132;28;20918;-79
2023/01/26 06:48:40;;;;;;;41.05;5.70;;;3.70;99.90;;;;;;5104804;28;20929;-79
2023/01/26 06:51:15;;;;;;;38.45;5.28;;;3.70;99.90;;;;;;5102561;28;20446;-79
2023/01/26 06:53:54;;;;;;;43.20;5.28;;;3.80;99.90;;;;;;5078475;28;20413;-79
2023/01/26 06:56:20;;;;;;;45.17;5.75;;;3.90;99.90;;;;;;5102316;28;20420;-79
2023/01/26 06:58:46;;;;;;;45.45;5.75;;;3.90;99.90;;;;;;5105646;28;20506;-79
2023/01/26 07:01:18;;;;;;;48.15;6.50;;;3.90;99.90;;;;;;5102013;28;20794;-80
2023/01/26 07:03:43;;;;;;;40.90;5.50;;;3.90;99.90;;;;;;5105330;28;20436;-80
2023/01/26 07:06:12;;;;;;;46.88;5.57;;;4.00;99.90;;;;;;5106834;28;20428;-80
2023/01/26 07:08:38;;;;;;;44.90;6.35;;;4.00;99.90;;;;;;5109383;28;20473;-80
2023/01/26 07:11:04;;;;;;;48.47;6.30;;;4.00;99.90;;;;;;5086187;28;20416;-79
2023/01/26 07:13:30;;;;;;;44.53;5.70;;;4.00;99.90;;;;;;5096792;28;20413;-79
2023/01/26 07:16:05;;;;;;;44.27;5.70;;;4.00;99.90;;;;;;5102876;28;20406;-79
2023/01/26 07:18:31;;;;;;;46.22;5.53;;;4.00;99.90;;;;;;5095270;28;20975;-79
2023/01/26 07:21:10;;;;;;;42.40;6.55;;;3.90;99.90;;;;;;5089738;28;20432;-79
2023/01/26 07:23:36;;;;;;;43.45;5.75;;;3.90;99.90;;;;;;5107387;28;20436;-79
2023/01/26 07:26:02;;;;;;;46.45;5.18;;;3.90;99.90;;;;;;5074421;28;20984;-79
2023/01/26 07:28:29;;;;;;;36.85;4.82;;;3.80;99.90;;;;;;5074536;28;20457;-80
2023/01/26 07:30:58;;;;;;;40.37;5.53;;;3.80;99.90;;;;;;5091321;28;20398;-80
2023/01/26 07:33:24;;;;;;;49.22;5.75;;;3.80;99.90;;;;;;5092446;28;20937;-79
2023/01/26 07:35:54;;;;;;;36.63;4.45;;;3.80;99.90;;;;;;5090361;28;20484;-79
2023/01/26 07:38:19;;;;;;;37.10;4.68;;;3.80;99.90;;;;;;5091119;28;20425;-79
2023/01/26 07:40:45;;;;;;;40.15;5.40;;;3.80;99.90;;;;;;5105627;27;20415;-79
2023/01/26 07:43:12;;;;;;;38.33;5.00;;;3.80;99.90;;;;;;5113820;27;20422;-79
2023/01/26 07:45:37;;;;;;;40.08;5.47;;;3.80;99.90;;;;;;5113187;27;20403;-79
2023/01/26 07:48:03;;;;;;;35.50;5.20;;;3.80;99.90;;;;;;5112666;27;20821;-79
2023/01/26 07:50:29;;;;;;;43.97;5.40;;;3.70;99.90;;;;;;5112774;27;20486;-79
2023/01/26 07:52:54;;;;;;;41.03;5.10;;;3.70;99.90;;;;;;5112665;27;20414;-79
2023/01/26 07:55:20;;;;;;;44.13;5.07;;;3.70;99.90;;;;;;5092204;28;20463;-79
2023/01/26 07:57:49;;;;;;;34.72;4.55;;;3.70;99.90;;;;;;5109053;27;20472;-80
2023/01/26 08:00:16;;;;;;;43.42;5.60;;;3.70;99.90;;;;;;5113007;27;20958;-79
2023/01/26 08:02:42;;;;;;;40.00;4.80;;;3.70;99.90;;;;;;5112099;27;20406;-79
2023/01/26 08:05:08;;;;;;;35.92;5.40;;;3.70;99.90;;;;;;5122031;27;20977;-79
2023/01/26 08:07:34;;;;;;;35.15;5.20;;;3.70;99.90;;;;;;5130707;27;20403;-79
2023/01/26 08:09:59;;;;;;;41.72;5.50;;;3.70;99.90;;;;;;5121481;27;20410;-79
2023/01/26 08:12:25;;;;;;;37.47;4.87;;;3.70;99.90;;;;;;5112698;27;20394;-79
2023/01/26 08:14:51;;;;;;;42.07;5.37;;;3.70;99.90;;;;;;5112666;27;20866;-79
2023/01/26 08:17:17;;;;;;;44.88;4.85;;;3.70;99.90;;;;;;5112713;27;20780;-80
2023/01/26 08:19:44;;;;;;;33.50;5.18;;;3.70;99.90;;;;;;5130558;27;20399;-79
2023/01/26 08:22:10;;;;;;;38.10;4.95;;;3.60;99.90;;;;;;5113346;27;20511;-79
2023/01/26 08:24:36;;;;;;;34.57;4.60;;;3.60;99.90;;;;;;5112805;27;20814;-79
2023/01/26 08:27:01;;;;;;;37.58;4.43;;;3.60;99.90;;;;;;5111560;27;20406;-79
2023/01/26 08:29:27;;;;;;;33.90;5.00;;;3.60;99.90;;;;;;5094843;27;20463;-80
2023/01/26 08:31:53;;;;;;;42.43;4.80;;;3.60;99.90;;;;;;5112596;27;20797;-79
2023/01/26 08:34:20;;;;;;;38.55;4.45;;;3.60;99.90;;;;;;5112043;27;20437;-79
2023/01/26 08:36:46;;;;;;;35.17;4.38;;;3.60;99.90;;;;;;5110393;27;20399;-79
2023/01/26 08:39:12;;;;;;;39.67;5.20;;;3.60;99.90;;;;;;5112393;27;21136;-80
2023/01/26 08:41:38;;;;;;;35.17;5.40;;;3.70;99.90;;;;;;5095216;27;20436;-79
2023/01/26 08:44:04;;;;;;;33.45;4.50;;;3.70;99.90;;;;;;5110860;27;20442;-79
2023/01/26 08:46:30;;;;;;;35.33;4.10;;;3.70;99.90;;;;;;5094664;27;20418;-79
2023/01/26 08:48:55;;;;;;;33.17;4.63;;;3.80;99.90;;;;;;5110308;27;20851;-79
2023/01/26 08:51:21;;;;;;;37.55;5.22;;;3.80;99.90;;;;;;5110844;27;20407;-79
2023/01/26 08:53:46;;;;;;;35.10;4.53;;;3.90;99.90;;;;;;5110892;27;20435;-79
2023/01/26 08:56:12;;;;;;;29.50;4.18;;;4.00;99.90;;;;;;5093613;27;20403;-79
2023/01/26 08:58:38;;;;;;;31.35;4.50;;;4.00;99.90;;;;;;5110463;27;20399;-79
2023/01/26 09:01:11;;;;;;;35.73;4.90;;;4.00;99.90;;;;;;5112375;27;20438;-79
2023/01/26 09:03:36;;;;;;;40.85;4.88;;;4.10;99.90;;;;;;5110364;27;20812;-79
2023/01/26 09:06:03;;;;;;;37.05;4.88;;;4.20;99.90;;;;;;5109805;27;20485;-79
2023/01/26 09:08:29;;;;;;;29.85;4.57;;;4.20;99.90;;;;;;5111130;27;20810;-79
2023/01/26 09:10:55;;;;;;;33.92;4.35;;;4.30;99.90;;;;;;5110657;27;20398;-79
2023/01/26 09:13:21;;;;;;;28.45;5.05;;;4.30;99.90;;;;;;5110711;27;20402;-79
2023/01/26 09:15:47;;;;;;;29.90;4.13;;;4.30;99.90;;;;;;5106008;27;20413;-79
2023/01/26 09:18:12;;;;;;;32.73;4.10;;;4.40;99.90;;;;;;5120223;27;20401;-79
2023/01/26 09:20:38;;;;;;;33.90;4.35;;;4.40;99.90;;;;;;5147053;27;20446;-79
2023/01/26 09:23:04;;;;;;;31.10;4.57;;;4.50;99.90;;;;;;5129253;27;20472;-79
2023/01/26 09:25:30;;;;;;;28.00;3.40;;;4.60;99.90;;;;;;5110672;27;20402;-79
2023/01/26 09:27:56;;;;;;;25.30;3.83;;;4.70;99.90;;;;;;5128649;27;20860;-79
2023/01/26 09:30:23;;;;;;;28.53;4.07;;;4.70;99.90;;;;;;5108744;27;20523;-79
2023/01/26 09:32:49;;;;;;;33.13;3.60;;;4.80;99.90;;;;;;5119452;27;20489;-79
2023/01/26 09:35:15;;;;;;;26.33;3.80;;;4.80;99.90;;;;;;5122286;27;20920;-79
2023/01/26 09:37:44;;;;;;;28.27;4.57;;;4.90;99.90;;;;;;5128258;27;20396;-79
2023/01/26 09:40:50;;;;;;;30.65;4.13;;;4.90;99.90;;;;;;5142319;27;20447;-79
2023/01/26 09:43:38;;;;;;;31.08;4.55;;;5.00;99.90;;;;;;5124077;27;20432;-79
2023/01/26 09:46:22;;;;;;;23.35;3.60;;;5.00;99.90;;;;;;5116578;27;20973;-79
2023/01/26 09:48:54;;;;;;;26.27;3.80;;;5.10;99.90;;;;;;5109782;28;20490;-79
2023/01/26 09:51:31;;;;;;;32.38;4.05;;;5.20;99.90;;;;;;5119891;27;20478;-79
2023/01/26 09:54:04;;;;;;;30.67;4.23;;;5.30;99.90;;;;;;5127514;27;20906;-79
2023/01/26 09:56:34;;;;;;;26.30;3.50;;;5.30;99.90;;;;;;5123489;27;20741;-78
2023/01/26 09:59:24;;;;;;;29.48;4.38;;;5.40;99.90;;;;;;5127031;27;20488;-79
2023/01/26 10:02:01;;;;;;;22.95;3.45;;;5.50;99.90;;;;;;5121449;27;20438;-79
2023/01/26 10:04:35;;;;;;;23.60;3.77;;;5.60;99.90;;;;;;5129716;27;20438;-79
2023/01/26 10:07:11;;;;;;;21.10;2.60;;;5.60;99.90;;;;;;5102301;28;20402;-79
2023/01/26 10:09:38;;;;;;;21.77;3.92;;;5.70;99.90;;;;;;5105624;28;20420;-79
2023/01/26 10:12:22;;;;;;;21.27;3.22;;;5.80;99.90;;;;;;5114877;27;20409;-79
2023/01/26 10:14:57;;;;;;;28.27;4.38;;;5.80;99.90;;;;;;5109915;27;20397;-79
2023/01/26 10:17:43;;;;;;;22.02;3.00;;;5.90;99.90;;;;;;5124357;28;20414;-79
2023/01/26 10:20:32;;;;;;;18.33;2.60;;;5.90;99.90;;;;;;5109510;28;20433;-80
2023/01/26 10:23:06;;;;;;;20.45;2.88;;;6.00;99.90;;;;;;5105518;27;20400;-79
2023/01/26 10:25:38;;;;;;;20.98;2.60;;;6.10;99.90;;;;;;5124547;27;20439;-79
2023/01/26 10:28:21;;;;;;;20.52;2.85;;;6.20;99.90;;;;;;5110199;27;20401;-79
2023/01/26 10:30:47;;;;;;;24.27;2.92;;;6.20;99.90;;;;;;5106972;28;20432;-79
2023/01/26 10:33:22;;;;;;;25.10;3.22;;;6.30;99.90;;;;;;5109791;28;20406;-79
2023/01/26 10:35:48;;;;;;;23.65;3.53;;;6.30;99.90;;;;;;5126003;27;20401;-79
2023/01/26 10:38:31;;;;;;;19.33;3.37;;;6.40;99.90;;;;;;5125193;27;20399;-79
2023/01/26 10:41:06;;;;;;;29.00;2.85;;;6.40;99.90;;;;;;5087037;27;20430;-79
2023/01/26 10:43:39;;;;;;;21.58;3.13;;;6.50;99.90;;;;;;5144293;27;20398;-79
2023/01/26 10:46:05;;;;;;;19.13;3.20;;;6.80;99.90;;;;;;5130982;27;20435;-79
2023/01/26 10:48:30;;;;;;;21.67;2.97;;;7.80;99.90;;;;;;5145768;27;20822;-80
2023/01/26 10:51:14;;;;;;;21.95;3.47;;;8.80;99.90;;;;;;5148616;27;20755;-80
2023/01/26 10:53:40;;;;;;;20.92;2.90;;;9.90;99.90;;;;;;5118030;27;20444;-78
2023/01/26 10:56:13;;;;;;;21.02;3.05;;;10.70;99.90;;;;;;5136051;27;20422;-78
2023/01/26 10:58:51;;;;;;;19.45;2.97;;;11.30;99.90;;;;;;5129476;27;20400;-78
2023/01/26 11:01:17;;;;;;;19.35;2.60;;;11.90;99.90;;;;;;5125262;27;20501;-78
2023/01/26 11:04:11;;;;;;;18.33;2.90;;;12.30;99.90;;;;;;5129503;27;20439;-78
2023/01/26 11:06:37;;;;;;;14.40;2.50;;;12.70;99.90;;;;;;5103115;27;20402;-78
2023/01/26 11:09:13;;;;;;;19.42;3.45;;;12.60;99.90;;;;;;5105568;27;20740;-78
2023/01/26 11:11:40;;;;;;;19.20;2.93;;;12.60;99.90;;;;;;5119428;27;20442;-78
2023/01/26 11:14:14;;;;;;;18.52;3.10;;;12.60;99.90;;;;;;5121087;27;20479;-78
2023/01/26 11:17:06;;;;;;;15.75;2.40;;;12.90;99.90;;;;;;5119893;27;20463;-78
2023/01/26 11:19:35;;;;;;;14.48;2.40;;;13.20;99.90;;;;;;5076925;27;20750;-78
2023/01/26 11:22:36;;;;;;;15.90;2.45;;;13.60;99.90;;;;;;5117289;27;20423;-78
2023/01/26 11:25:40;;;;;;;15.52;2.17;;;13.70;99.90;;;;;;5113673;27;20966;-78
2023/01/26 11:28:31;;;;;;;17.92;2.33;;;12.80;99.90;;;;;;5062938;27;20419;-77
2023/01/26 11:31:16;;;;;;;16.52;2.25;;;11.80;99.90;;;;;;5108444;27;20780;-78
2023/01/26 11:33:59;;;;;;;15.20;2.37;;;11.10;99.90;;;;;;5107271;28;20420;-77
2023/01/26 11:36:39;;;;;;;12.85;1.80;;;10.60;99.90;;;;;;5109921;27;20413;-80
2023/01/26 11:39:29;;;;;;;16.92;2.65;;;10.30;99.90;;;;;;5107592;27;20796;-80
2023/01/26 11:42:16;;;;;;;12.95;1.63;;;10.10;99.90;;;;;;5109500;27;20432;-79
2023/01/26 11:44:56;;;;;;;14.30;2.05;;;9.80;99.90;;;;;;5094892;27;20942;-80
2023/01/26 11:48:00;;;;;;;18.48;3.20;;;9.70;99.90;;;;;;5115222;27;20969;-79
2023/01/26 11:51:06;;;;;;;14.63;2.25;;;9.80;99.90;;;;;;5114469;27;20493;-79
2023/01/26 11:53:44;;;;;;;14.98;2.17;;;9.90;99.90;;;;;;5101725;27;20411;-79
2023/01/26 11:56:21;;;;;;;12.52;2.10;;;9.80;99.90;;;;;;5099001;27;20511;-79
2023/01/26 11:59:00;;;;;;;12.52;1.85;;;9.70;99.90;;;;;;5114596;27;20430;-80
2023/01/26 12:01:36;;;;;;;11.80;1.88;;;10.10;99.90;;;;;;5126908;27;20433;-80
2023/01/26 12:04:02;;;;;;;13.27;2.27;;;10.10;99.90;;;;;;5127677;27;20938;-79
2023/01/26 12:06:39;;;;;;;12.50;1.67;;;9.90;99.90;;;;;;5112446;27;20403;-80
2023/01/26 12:09:21;;;;;;;16.63;2.70;;;9.80;99.90;;;;;;5113942;27;20450;-79
2023/01/26 12:12:04;;;;;;;15.20;2.40;;;9.70;99.90;;;;;;5112074;27;20469;-80
2023/01/26 12:14:59;;;;;;;13.45;1.85;;;9.80;99.90;;;;;;5145310;27;20473;-79
2023/01/26 12:17:35;;;;;;;13.32;1.85;;;9.80;99.90;;;;;;5115642;27;20479;-80
2023/01/26 12:20:38;;;;;;;12.35;1.98;;;9.70;99.90;;;;;;5129088;27;20929;-79
2023/01/26 12:23:07;;;;;;;8.55;1.33;;;9.50;99.90;;;;;;5110241;27;20752;-79
2023/01/26 12:25:54;;;;;;;13.65;1.65;;;9.20;99.90;;;;;;5107851;27;20418;-79
2023/01/26 12:28:26;;;;;;;13.07;1.83;;;9.10;99.90;;;;;;5099266;27;20449;-79
2023/01/26 12:31:07;;;;;;;11.32;1.67;;;9.10;99.90;;;;;;5118356;27;20464;-80
2023/01/26 12:33:34;;;;;;;10.00;1.45;;;9.00;99.90;;;;;;5094270;27;20426;-79
2023/01/26 12:36:26;;;;;;;8.25;1.10;;;8.80;99.90;;;;;;5108534;27;20401;-79
2023/01/26 12:39:11;;;;;;;11.20;1.65;;;8.70;99.90;;;;;;5123532;27;20401;-79
2023/01/26 12:41:45;;;;;;;9.60;1.35;;;8.70;99.90;;;;;;5123869;27;20433;-79
2023/01/26 12:44:35;;;;;;;11.27;1.80;;;8.70;99.90;;;;;;5102766;27;20468;-79
2023/01/26 12:47:13;;;;;;;9.80;1.40;;;8.60;99.90;;;;;;5113100;27;20462;-79
2023/01/26 12:49:50;;;;;;;12.07;1.40;;;8.50;99.90;;;;;;5123353;27;20500;-79
2023/01/26 12:52:29;;;;;;;11.50;1.65;;;8.30;99.90;;;;;;5116899;27;20491;-79
2023/01/26 12:55:23;;;;;;;15.45;2.38;;;8.30;99.90;;;;;;5102552;27;20417;-79
2023/01/26 12:57:57;;;;;;;12.13;1.50;;;8.20;99.90;;;;;;5095104;27;20424;-79
2023/01/26 13:00:34;;;;;;;12.20;1.42;;;8.10;99.90;;;;;;5111649;27;20407;-79
2023/01/26 13:03:23;;;;;;;9.77;1.67;;;8.00;99.90;;;;;;5094398;27;20511;-79
2023/01/26 13:06:18;;;;;;;11.82;1.73;;;8.00;99.90;;;;;;5100633;27;20780;-79
2023/01/26 13:09:03;;;;;;;15.20;1.77;;;8.00;99.90;;;;;;5110500;27;20402;-79
2023/01/26 13:11:38;;;;;;;10.20;1.10;;;8.00;99.90;;;;;;5115334;27;20413;-79
2023/01/26 13:14:28;;;;;;;10.20;1.67;;;8.00;99.90;;;;;;5114820;27;20944;-80
2023/01/26 13:16:55;;;;;;;12.38;1.73;;;8.00;99.90;;;;;;5112171;27;20405;-79
2023/01/26 13:19:40;;;;;;;9.80;1.58;;;8.10;99.90;;;;;;5121157;27;20950;-79
2023/01/26 13:22:26;;;;;;;15.07;1.87;;;8.10;99.90;;;;;;5120704;27;20518;-79
2023/01/26 13:24:54;;;;;;;11.82;1.75;;;8.10;99.90;;;;;;5124458;27;20418;-79
2023/01/26 13:27:38;;;;;;;12.75;1.77;;;8.10;99.90;;;;;;5099734;27;20920;-80
2023/01/26 13:30:22;;;;;;;12.20;1.50;;;8.00;99.90;;;;;;5093360;27;20900;-79
2023/01/26 13:32:47;;;;;;;11.35;1.42;;;8.00;99.90;;;;;;5107120;27;21158;-80
2023/01/26 13:35:16;;;;;;;11.32;1.70;;;8.00;99.90;;;;;;5124959;27;20438;-79
2023/01/26 13:37:51;;;;;;;16.35;2.22;;;7.90;99.90;;;;;;5120472;27;20440;-79
2023/01/26 13:40:30;;;;;;;12.20;1.65;;;7.80;99.90;;;;;;5094931;27;20422;-79
2023/01/26 13:43:34;;;;;;;15.23;1.92;;;7.80;99.90;;;;;;5117134;27;20467;-79
2023/01/26 13:46:21;;;;;;;15.63;2.40;;;7.80;99.90;;;;;;5101824;27;20489;-79